Time;durP1;ratioP1;P1;durP2;ratioP2;P2;SDS_P1;SDS_P2;PMS_P1;PMS_P2;Temp;Humidity;BMP_temperature;BMP_pressure;BME280_temperature;BME280_humidity;BME280_pressure;Samples;Min_cycle;Max_cycle;Signal;HPM_P1;HPM_P2
2021/10/26 00:01:21;;;;;;;29.08;16.38;;;;;;;10.59;100.00;101825.19;5071777;28;20033;-64
2021/10/26 00:03:46;;;;;;;35.30;17.55;;;;;;;10.62;100.00;101819.78;5071901;28;20100;-63
2021/10/26 00:06:12;;;;;;;31.23;16.10;;;;;;;10.58;100.00;101829.59;5072107;28;20028;-59
2021/10/26 00:08:37;;;;;;;33.63;16.85;;;;;;;10.53;100.00;101831.53;5071748;28;20104;-64
2021/10/26 00:11:03;;;;;;;31.58;16.30;;;;;;;10.55;100.00;101828.81;5071458;28;20028;-59
2021/10/26 00:13:29;;;;;;;28.80;16.63;;;;;;;10.55;100.00;101837.66;5071544;28;20459;-59
2021/10/26 00:15:55;;;;;;;36.05;17.55;;;;;;;10.58;100.00;101832.25;5072193;28;20045;-65
2021/10/26 00:18:20;;;;;;;36.97;16.48;;;;;;;10.64;100.00;101842.69;5071389;28;20024;-65
2021/10/26 00:20:46;;;;;;;29.75;16.05;;;;;;;10.69;100.00;101839.03;5072059;28;20025;-63
2021/10/26 00:23:11;;;;;;;32.88;16.58;;;;;;;10.68;100.00;101840.81;5071542;28;20025;-64
2021/10/26 00:25:37;;;;;;;33.15;15.90;;;;;;;10.72;100.00;101842.44;5071781;28;20036;-62
2021/10/26 00:28:02;;;;;;;36.28;16.27;;;;;;;10.74;100.00;101838.00;5071791;28;20074;-64
2021/10/26 00:30:29;;;;;;;32.05;16.83;;;;;;;10.77;100.00;101837.03;5071586;28;20035;-64
2021/10/26 00:32:54;;;;;;;32.78;15.27;;;;;;;10.79;100.00;101835.19;5071444;28;20060;-64
2021/10/26 00:35:20;;;;;;;27.83;15.00;;;;;;;10.76;100.00;101841.44;5075094;28;20476;-62
2021/10/26 00:37:46;;;;;;;28.98;14.93;;;;;;;10.73;100.00;101843.31;5075384;28;20037;-64
2021/10/26 00:40:13;;;;;;;27.17;14.63;;;;;;;10.72;100.00;101846.91;5074779;28;20379;-61
2021/10/26 00:42:38;;;;;;;30.38;14.10;;;;;;;10.68;100.00;101859.34;5074879;28;20032;-63
2021/10/26 00:45:05;;;;;;;27.02;13.48;;;;;;;10.62;100.00;101851.59;5074861;28;20048;-65
2021/10/26 00:47:30;;;;;;;25.70;14.20;;;;;;;10.56;100.00;101855.28;5075225;28;20475;-64
2021/10/26 00:49:55;;;;;;;27.02;13.15;;;;;;;10.53;100.00;101860.66;5074748;28;20025;-64
2021/10/26 00:52:21;;;;;;;29.20;13.15;;;;;;;10.44;100.00;101863.56;5075099;28;20028;-64
2021/10/26 00:54:47;;;;;;;24.95;12.23;;;;;;;10.39;100.00;101866.34;5074656;28;20028;-63
2021/10/26 00:57:14;;;;;;;27.98;12.63;;;;;;;10.37;100.00;101867.28;5074844;28;20082;-59
2021/10/26 00:59:40;;;;;;;30.65;13.10;;;;;;;10.29;100.00;101854.22;5075085;28;20020;-64
2021/10/26 01:02:05;;;;;;;28.92;12.75;;;;;;;10.25;100.00;101871.97;5074842;28;20434;-64
2021/10/26 01:04:31;;;;;;;30.75;11.73;;;;;;;10.21;100.00;101866.81;5074387;28;22065;-63
2021/10/26 01:06:56;;;;;;;26.10;11.88;;;;;;;10.18;100.00;101878.34;5074945;28;20030;-59
2021/10/26 01:09:22;;;;;;;27.90;12.18;;;;;;;10.13;100.00;101870.53;5074969;28;20039;-65
2021/10/26 01:11:47;;;;;;;25.02;11.82;;;;;;;10.11;100.00;101864.41;5074202;28;20376;-59
2021/10/26 01:14:15;;;;;;;26.02;11.73;;;;;;;10.10;100.00;101865.31;5075043;28;20031;-65
2021/10/26 01:16:41;;;;;;;33.13;12.43;;;;;;;10.09;100.00;101865.34;5074398;28;20035;-59
2021/10/26 01:19:07;;;;;;;31.92;12.50;;;;;;;10.10;100.00;101864.44;5074734;28;20024;-62
2021/10/26 01:21:33;;;;;;;27.40;11.52;;;;;;;10.04;100.00;101856.66;5074132;28;20044;-65
2021/10/26 01:23:58;;;;;;;30.08;11.38;;;;;;;10.02;100.00;101858.50;5074478;28;20361;-64
2021/10/26 01:26:24;;;;;;;24.38;10.90;;;;;;;9.98;100.00;101860.34;5074101;28;20021;-56
2021/10/26 01:28:49;;;;;;;24.70;10.48;;;;;;;9.96;100.00;101868.34;5074536;28;20031;-64
2021/10/26 01:31:15;;;;;;;27.17;10.38;;;;;;;9.91;100.00;101858.75;5074506;28;20116;-59
2021/10/26 01:33:41;;;;;;;24.48;11.23;;;;;;;9.89;100.00;101865.88;5073707;28;20091;-61
2021/10/26 01:36:07;;;;;;;27.45;11.20;;;;;;;9.82;100.00;101866.03;5074061;28;20056;-59
2021/10/26 01:38:33;;;;;;;27.02;11.55;;;;;;;9.74;100.00;101861.84;5073849;28;20081;-65
2021/10/26 01:40:58;;;;;;;31.00;13.25;;;;;;;9.70;100.00;101861.03;5074212;28;20040;-60
2021/10/26 01:43:23;;;;;;;31.63;12.20;;;;;;;9.68;100.00;101871.66;5073948;28;20039;-65
2021/10/26 01:45:51;;;;;;;30.25;13.85;;;;;;;9.62;100.00;101865.66;5073817;28;20035;-59
2021/10/26 01:48:16;;;;;;;25.90;12.45;;;;;;;9.60;100.00;101868.31;5074088;28;20025;-59
2021/10/26 01:50:42;;;;;;;29.85;12.63;;;;;;;9.53;100.00;101869.41;5073871;28;20029;-64
2021/10/26 01:53:08;;;;;;;26.83;12.60;;;;;;;9.51;100.00;101864.16;5073554;28;20017;-64
2021/10/26 01:55:33;;;;;;;32.33;12.60;;;;;;;9.49;100.00;101867.72;5073576;28;20025;-60
2021/10/26 01:57:59;;;;;;;30.33;11.77;;;;;;;9.50;100.00;101866.81;5073369;28;20102;-64
2021/10/26 02:00:24;;;;;;;27.23;12.18;;;;;;;9.47;100.00;101877.47;5073995;28;20063;-64
2021/10/26 02:02:50;;;;;;;26.75;11.65;;;;;;;9.42;100.00;101874.06;5073784;28;20048;-59
2021/10/26 02:05:16;;;;;;;23.00;11.38;;;;;;;9.39;100.00;101876.78;5073344;28;20041;-63
2021/10/26 02:07:41;;;;;;;31.83;12.15;;;;;;;9.35;100.00;101875.97;5073004;28;20119;-64
2021/10/26 02:10:07;;;;;;;25.35;11.85;;;;;;;9.31;100.00;101879.56;5073537;28;20020;-64
2021/10/26 02:12:33;;;;;;;30.58;11.93;;;;;;;9.29;100.00;101878.75;5073574;28;20036;-61
2021/10/26 02:14:59;;;;;;;28.23;11.65;;;;;;;9.24;100.00;101880.66;5073160;28;20077;-64
2021/10/26 02:17:24;;;;;;;30.02;12.35;;;;;;;9.20;100.00;101881.63;5073167;28;20094;-63
2021/10/26 02:19:49;;;;;;;28.73;12.60;;;;;;;9.15;100.00;101879.94;5073412;28;20086;-59
2021/10/26 02:22:15;;;;;;;28.85;12.57;;;;;;;9.11;100.00;101880.91;5073287;28;20029;-64
2021/10/26 02:24:40;;;;;;;35.33;13.00;;;;;;;9.11;100.00;101869.47;5073578;28;20050;-64
2021/10/26 02:27:06;;;;;;;33.17;14.15;;;;;;;9.19;100.00;101878.09;5072951;28;20110;-61
2021/10/26 02:29:31;;;;;;;37.35;13.95;;;;;;;9.24;100.00;101885.94;5072781;28;20503;-63
2021/10/26 02:31:56;;;;;;;39.97;14.85;;;;;;;9.20;100.00;101878.97;5073055;28;20040;-64
2021/10/26 02:34:22;;;;;;;36.63;14.80;;;;;;;9.20;100.00;101882.47;5072910;28;20033;-63
2021/10/26 02:36:48;;;;;;;36.00;15.35;;;;;;;9.20;100.00;101890.41;5072711;28;20369;-64
2021/10/26 02:39:13;;;;;;;38.85;14.93;;;;;;;9.20;100.00;101886.91;5072405;28;20029;-61
2021/10/26 02:41:39;;;;;;;41.58;16.58;;;;;;;9.20;100.00;101890.41;5072751;28;20021;-63
2021/10/26 02:44:05;;;;;;;33.83;15.63;;;;;;;9.20;100.00;101895.69;5072940;28;20028;-59
2021/10/26 02:46:30;;;;;;;37.25;15.15;;;;;;;9.18;100.00;101889.56;5072829;28;20029;-64
2021/10/26 02:48:56;;;;;;;35.55;16.13;;;;;;;9.16;100.00;101901.97;5072844;28;20090;-59
2021/10/26 02:51:22;;;;;;;38.03;16.55;;;;;;;9.13;100.00;101904.66;5072656;28;20035;-64
2021/10/26 02:53:47;;;;;;;37.20;16.33;;;;;;;9.09;100.00;101895.94;5072517;28;20032;-62
2021/10/26 02:56:12;;;;;;;37.22;16.60;;;;;;;9.05;100.00;101910.09;5072383;28;20031;-60
2021/10/26 02:58:38;;;;;;;34.90;14.95;;;;;;;9.08;100.00;101910.06;5072313;28;20017;-63
2021/10/26 03:01:03;;;;;;;40.38;16.15;;;;;;;9.01;100.00;101905.78;5072097;28;20031;-64
2021/10/26 03:03:28;;;;;;;40.17;16.33;;;;;;;8.98;100.00;101906.72;5072603;28;20032;-60
2021/10/26 03:05:54;;;;;;;34.15;15.63;;;;;;;8.96;100.00;101894.44;5073066;28;20028;-64
2021/10/26 03:08:19;;;;;;;40.50;15.63;;;;;;;8.95;100.00;101896.22;5072028;28;20025;-63
2021/10/26 03:10:45;;;;;;;36.60;15.63;;;;;;;8.92;100.00;101895.44;5072350;28;20136;-63
2021/10/26 03:13:10;;;;;;;44.45;16.23;;;;;;;8.93;100.00;101892.75;5072365;28;20048;-59
2021/10/26 03:15:36;;;;;;;42.83;17.20;;;;;;;8.94;100.00;101894.50;5072425;28;20032;-64
2021/10/26 03:18:01;;;;;;;38.55;15.77;;;;;;;8.94;100.00;101883.91;5072256;28;20031;-59
2021/10/26 03:20:27;;;;;;;44.92;16.13;;;;;;;8.94;100.00;101881.28;5072392;28;20032;-63
2021/10/26 03:22:52;;;;;;;40.97;15.68;;;;;;;8.91;100.00;101885.75;5072178;28;20036;-64
2021/10/26 03:25:18;;;;;;;33.67;14.30;;;;;;;8.89;100.00;101895.47;5072594;28;20059;-63
2021/10/26 03:27:44;;;;;;;31.33;13.93;;;;;;;8.89;100.00;101893.72;5072610;28;20024;-64
2021/10/26 03:30:11;;;;;;;30.63;13.80;;;;;;;8.85;100.00;101892.03;5071989;28;20099;-64
2021/10/26 03:32:37;;;;;;;38.10;14.50;;;;;;;8.81;100.00;101883.31;5071793;28;20045;-60
2021/10/26 03:35:03;;;;;;;36.85;14.00;;;;;;;8.79;100.00;101895.66;5072414;28;20111;-64
2021/10/26 03:37:29;;;;;;;27.30;12.77;;;;;;;8.76;100.00;101897.50;5072460;28;20394;-59
2021/10/26 03:39:56;;;;;;;40.25;14.05;;;;;;;8.75;100.00;101893.13;5071946;28;20037;-64
2021/10/26 03:42:25;;;;;;;33.53;13.55;;;;;;;8.71;100.00;101894.06;5072652;28;20027;-64
2021/10/26 03:44:51;;;;;;;32.92;13.82;;;;;;;8.70;100.00;101898.50;5071888;28;20070;-59
2021/10/26 03:47:17;;;;;;;33.20;14.20;;;;;;;8.69;100.00;101902.03;5072209;28;20457;-62
2021/10/26 03:49:43;;;;;;;33.65;13.52;;;;;;;8.70;100.00;101903.78;5072261;28;20035;-65
2021/10/26 03:52:09;;;;;;;40.10;13.00;;;;;;;8.71;100.00;101897.59;5071834;28;20391;-63
2021/10/26 03:54:35;;;;;;;37.38;13.35;;;;;;;8.74;100.00;101912.53;5071895;28;20028;-64
2021/10/26 03:57:00;;;;;;;29.10;12.85;;;;;;;8.74;100.00;101905.44;5072462;28;20028;-60
2021/10/26 03:59:30;;;;;;;31.23;12.68;;;;;;;8.78;100.00;101906.28;5072006;28;20024;-59
2021/10/26 04:02:03;;;;;;;31.52;12.90;;;;;;;8.83;100.00;101912.31;5071823;28;20043;-59
2021/10/26 04:04:28;;;;;;;35.03;12.43;;;;;;;8.87;100.00;101908.72;5071955;28;20108;-59
2021/10/26 04:06:54;;;;;;;36.30;12.73;;;;;;;8.91;100.00;101920.09;5072255;28;20583;-59
2021/10/26 04:09:31;;;;;;;24.90;11.27;;;;;;;8.92;100.00;101920.06;5074257;28;20523;-64
2021/10/26 04:12:17;;;;;;;44.88;14.05;;;;;;;8.96;100.00;101924.38;5075395;28;20024;-59
2021/10/26 04:14:42;;;;;;;44.03;15.55;;;;;;;9.06;100.00;101916.28;5075113;28;20127;-63
2021/10/26 04:17:08;;;;;;;37.92;14.05;;;;;;;9.07;100.00;101918.88;5075776;28;20036;-64
2021/10/26 04:19:33;;;;;;;38.38;13.82;;;;;;;9.08;100.00;101914.44;5075811;28;20103;-64
2021/10/26 04:21:58;;;;;;;35.40;13.25;;;;;;;9.11;100.00;101922.31;5075522;28;20472;-64
2021/10/26 04:24:23;;;;;;;38.88;13.55;;;;;;;9.11;100.00;101924.97;5075574;28;20024;-64
2021/10/26 04:26:49;;;;;;;58.00;15.75;;;;;;;9.10;100.00;101921.44;5074872;28;20036;-64
2021/10/26 04:29:14;;;;;;;34.33;14.15;;;;;;;9.11;100.00;101928.47;5075379;28;20024;-64
2021/10/26 04:31:39;;;;;;;41.15;14.48;;;;;;;9.08;100.00;101925.00;5075506;28;20024;-61
2021/10/26 04:34:05;;;;;;;40.75;13.63;;;;;;;9.04;100.00;101924.25;5075014;28;20541;-59
2021/10/26 04:36:30;;;;;;;42.80;14.45;;;;;;;9.03;100.00;101935.69;5075054;28;20029;-60
2021/10/26 04:38:55;;;;;;;44.45;14.75;;;;;;;9.00;100.00;101934.00;5075099;28;20042;-61
2021/10/26 04:41:21;;;;;;;42.63;14.70;;;;;;;8.99;100.00;101931.34;5074915;28;20032;-63
2021/10/26 04:43:46;;;;;;;37.50;14.43;;;;;;;8.95;100.00;101934.97;5074960;28;20119;-60
2021/10/26 04:46:12;;;;;;;41.70;14.40;;;;;;;8.91;100.00;101936.81;5075326;28;20048;-62
2021/10/26 04:48:37;;;;;;;35.05;14.13;;;;;;;8.87;100.00;101931.63;5074898;28;20048;-64
2021/10/26 04:51:02;;;;;;;39.90;14.38;;;;;;;8.90;100.00;101940.38;5075403;28;20107;-63
2021/10/26 04:53:28;;;;;;;42.63;15.65;;;;;;;8.90;100.00;101937.72;5075317;28;20483;-63
2021/10/26 04:55:53;;;;;;;42.83;16.08;;;;;;;8.90;100.00;101942.13;5074633;28;20032;-62
2021/10/26 04:58:18;;;;;;;49.72;17.30;;;;;;;8.91;100.00;101941.22;5074439;28;20029;-59
2021/10/26 05:00:44;;;;;;;49.30;17.70;;;;;;;8.91;100.00;101950.00;5074744;28;20029;-60
2021/10/26 05:03:09;;;;;;;47.08;17.77;;;;;;;8.92;100.00;101951.75;5074830;28;20025;-60
2021/10/26 05:05:35;;;;;;;46.00;16.50;;;;;;;8.92;100.00;101950.91;5074505;28;20337;-58
2021/10/26 05:08:01;;;;;;;45.30;17.27;;;;;;;8.88;100.00;101957.16;5074444;28;20060;-60
2021/10/26 05:10:27;;;;;;;50.78;18.02;;;;;;;8.87;100.00;101950.13;5074548;28;20031;-61
2021/10/26 05:12:52;;;;;;;43.03;16.67;;;;;;;8.87;100.00;101953.63;5074683;28;20032;-59
2021/10/26 05:15:18;;;;;;;51.72;17.25;;;;;;;8.85;100.00;101947.50;5074079;28;20502;-60
2021/10/26 05:17:43;;;;;;;38.03;16.95;;;;;;;8.84;100.00;101951.06;5074764;28;20466;-59
2021/10/26 05:20:14;;;;;;;43.13;17.33;;;;;;;8.83;100.00;101957.22;5073712;28;20590;-62
2021/10/26 05:22:39;;;;;;;41.17;17.17;;;;;;;8.80;100.00;101959.94;5056439;28;20447;-64
2021/10/26 05:25:05;;;;;;;38.58;16.38;;;;;;;8.77;100.00;101966.16;5074600;28;20044;-64
2021/10/26 05:27:36;;;;;;;48.47;17.92;;;;;;;8.75;100.00;101967.94;5074211;28;20074;-59
2021/10/26 05:30:01;;;;;;;39.00;17.37;;;;;;;8.75;100.00;101970.59;5074174;28;20020;-61
2021/10/26 05:32:27;;;;;;;46.47;18.23;;;;;;;8.73;100.00;101982.06;5074500;28;20434;-58
2021/10/26 05:34:52;;;;;;;47.75;16.70;;;;;;;8.69;100.00;101981.25;5074021;28;20040;-65
2021/10/26 05:37:18;;;;;;;38.83;16.35;;;;;;;8.67;100.00;101978.66;5073798;28;20024;-59
2021/10/26 05:39:44;;;;;;;45.53;16.85;;;;;;;8.63;100.00;101984.91;5074064;28;20017;-59
2021/10/26 05:42:09;;;;;;;50.65;18.85;;;;;;;8.67;100.00;101993.59;5073592;28;20029;-64
2021/10/26 05:44:35;;;;;;;49.38;18.73;;;;;;;8.68;100.00;101990.06;5073715;28;20103;-57
2021/10/26 05:47:00;;;;;;;43.53;16.90;;;;;;;8.65;100.00;101984.88;5073927;28;20087;-58
2021/10/26 05:49:25;;;;;;;52.00;19.00;;;;;;;8.67;100.00;101993.59;5073914;28;20025;-63
2021/10/26 05:51:51;;;;;;;46.22;18.25;;;;;;;8.67;100.00;101991.84;5073301;28;20107;-59
2021/10/26 05:54:16;;;;;;;42.78;18.13;;;;;;;8.66;100.00;101989.25;5073586;28;20083;-61
2021/10/26 05:56:41;;;;;;;46.40;17.50;;;;;;;8.67;100.00;101994.50;5073190;28;20480;-64
2021/10/26 05:59:07;;;;;;;43.42;17.63;;;;;;;8.66;100.00;101987.47;5073133;28;20040;-60
2021/10/26 06:01:32;;;;;;;42.00;17.35;;;;;;;8.66;100.00;101978.69;5073607;28;20074;-59
2021/10/26 06:03:57;;;;;;;41.00;16.58;;;;;;;8.65;100.00;101975.16;5073103;28;20044;-64
2021/10/26 06:06:23;;;;;;;34.72;16.77;;;;;;;8.66;100.00;101974.25;5073166;28;20299;-58
2021/10/26 06:08:51;;;;;;;43.03;16.73;;;;;;;8.69;100.00;101971.56;5073206;28;20040;-64
2021/10/26 06:11:20;;;;;;;43.33;17.30;;;;;;;8.71;100.00;101970.66;5084626;28;20513;-59
2021/10/26 06:13:49;;;;;;;36.17;15.93;;;;;;;8.71;100.00;101973.31;5086393;28;20384;-59
2021/10/26 06:16:15;;;;;;;43.40;16.48;;;;;;;8.67;100.00;101983.03;5071734;28;20126;-60
2021/10/26 06:18:40;;;;;;;42.90;15.88;;;;;;;8.68;100.00;101969.84;5072251;28;20059;-58
2021/10/26 06:21:05;;;;;;;44.28;15.88;;;;;;;8.71;100.00;101971.56;5073189;28;20028;-61
2021/10/26 06:23:31;;;;;;;45.72;16.08;;;;;;;8.75;100.00;101969.72;5073326;28;20029;-65
2021/10/26 06:25:59;;;;;;;40.22;15.10;;;;;;;8.72;100.00;101981.22;5068063;28;20024;-57
2021/10/26 06:28:26;;;;;;;38.33;15.25;;;;;;;8.66;100.00;101981.31;5072388;28;20025;-57
2021/10/26 06:30:51;;;;;;;31.27;14.27;;;;;;;8.65;100.00;101984.88;5071696;28;20033;-59
2021/10/26 06:33:16;;;;;;;38.42;15.35;;;;;;;8.64;100.00;101985.75;5072625;28;20055;-56
2021/10/26 06:35:42;;;;;;;39.65;14.68;;;;;;;8.64;100.00;101985.75;5072524;28;20044;-61
2021/10/26 06:38:07;;;;;;;31.83;14.30;;;;;;;8.66;100.00;101991.88;5073060;28;20024;-60
2021/10/26 06:40:33;;;;;;;39.90;14.50;;;;;;;8.65;100.00;102001.56;5072004;28;20032;-58
2021/10/26 06:42:58;;;;;;;30.48;13.85;;;;;;;8.66;100.00;102005.94;5072958;28;20384;-59
2021/10/26 06:45:24;;;;;;;37.58;14.25;;;;;;;8.67;100.00;102012.97;5072555;28;20028;-58
2021/10/26 06:47:50;;;;;;;42.25;14.45;;;;;;;8.66;100.00;102008.59;5072996;28;20501;-58
2021/10/26 06:50:15;;;;;;;37.53;14.55;;;;;;;8.68;100.00;102004.16;5072628;28;20111;-58
2021/10/26 06:52:41;;;;;;;34.25;14.73;;;;;;;8.75;100.00;102010.19;5072163;28;20022;-59
2021/10/26 06:55:07;;;;;;;42.25;15.00;;;;;;;8.76;100.00;102009.31;5053774;28;20032;-58
2021/10/26 06:57:33;;;;;;;38.88;15.70;;;;;;;8.83;100.00;102012.69;5072346;28;20499;-56
2021/10/26 06:59:59;;;;;;;33.33;15.15;;;;;;;8.89;100.00;102007.31;5072821;28;20021;-58
2021/10/26 07:02:25;;;;;;;48.55;15.05;;;;;;;8.96;100.00;102003.63;5072989;28;20082;-58
2021/10/26 07:04:50;;;;;;;33.90;14.73;;;;;;;9.04;100.00;102011.44;5072228;28;20468;-57
2021/10/26 07:07:15;;;;;;;35.47;15.82;;;;;;;9.11;100.00;102005.09;5072543;28;20059;-59
2021/10/26 07:09:41;;;;;;;34.28;15.55;;;;;;;9.21;100.00;102011.09;5072509;28;20108;-59
2021/10/26 07:12:06;;;;;;;35.80;15.35;;;;;;;9.31;100.00;102014.38;5072553;28;20024;-58
2021/10/26 07:14:32;;;;;;;34.25;15.20;;;;;;;9.40;100.00;102011.56;5072454;28;20067;-56
2021/10/26 07:16:57;;;;;;;32.83;15.45;;;;;;;9.50;100.00;102018.41;5072856;28;20048;-56
2021/10/26 07:19:23;;;;;;;33.83;14.52;;;;;;;9.55;100.00;102015.66;5071577;28;20060;-58
2021/10/26 07:21:49;;;;;;;33.55;15.10;;;;;;;9.66;100.00;102015.44;5073626;28;20024;-58
2021/10/26 07:24:15;;;;;;;30.05;14.18;;;;;;;9.74;100.00;102021.41;5072127;28;20041;-57
2021/10/26 07:26:40;;;;;;;32.53;14.50;;;;;;;9.78;100.00;102017.81;5072583;28;20021;-58
2021/10/26 07:29:06;;;;;;;29.88;14.00;;;;;;;9.89;100.00;102022.84;5072744;28;20481;-59
2021/10/26 07:31:32;;;;;;;26.67;13.88;;;;;;;9.97;100.00;102035.88;5072164;28;20097;-58
2021/10/26 07:33:59;;;;;;;32.67;13.75;;;;;;;10.02;100.00;102033.16;5071456;28;20044;-57
2021/10/26 07:36:30;;;;;;;26.15;13.13;;;;;;;10.10;100.00;102028.53;5072795;28;20048;-57
2021/10/26 07:39:04;;;;;;;21.27;12.55;;;;;;;10.09;100.00;102040.91;5072274;28;20099;-59
2021/10/26 07:41:29;;;;;;;26.50;12.32;;;;;;;10.12;100.00;102030.25;5071830;28;20484;-58
2021/10/26 07:43:55;;;;;;;26.05;13.13;;;;;;;10.16;100.00;102033.69;5075582;28;20039;-58
2021/10/26 07:46:21;;;;;;;27.88;13.55;;;;;;;10.21;100.00;102044.19;5075862;28;20033;-58
2021/10/26 07:48:48;;;;;;;23.85;12.40;;;;;;;10.26;100.00;102050.22;5075724;28;20035;-59
2021/10/26 07:51:13;;;;;;;27.35;12.20;;;;;;;10.24;100.00;102041.44;5076692;28;20032;-58
2021/10/26 07:53:39;;;;;;;24.63;11.88;;;;;;;10.27;100.00;102039.59;5075971;28;20491;-58
2021/10/26 07:56:06;;;;;;;25.73;11.75;;;;;;;10.28;100.00;102040.44;5076025;28;20046;-58
2021/10/26 07:58:32;;;;;;;29.95;13.38;;;;;;;10.35;100.00;102039.41;5076406;28;20474;-57
2021/10/26 08:00:57;;;;;;;30.35;12.75;;;;;;;10.38;100.00;102034.06;5076425;28;20020;-55
2021/10/26 08:03:23;;;;;;;22.15;12.10;;;;;;;10.48;100.00;102045.28;5075561;28;20495;-59
2021/10/26 08:05:49;;;;;;;26.23;12.40;;;;;;;10.49;100.00;102041.75;5076039;28;20036;-59
2021/10/26 08:08:17;;;;;;;30.17;11.65;;;;;;;10.55;100.00;102035.41;5075597;28;20112;-59
2021/10/26 08:10:43;;;;;;;25.70;11.23;;;;;;;10.65;100.00;102027.22;5075744;28;20495;-59
2021/10/26 08:13:08;;;;;;;25.27;11.10;;;;;;;10.68;100.00;102031.56;5075952;28;20029;-60
2021/10/26 08:15:33;;;;;;;19.15;9.55;;;;;;;10.74;100.00;102044.63;5075440;28;20361;-59
2021/10/26 08:17:59;;;;;;;20.60;10.00;;;;;;;10.80;100.00;102056.84;5075157;28;20028;-58
2021/10/26 08:20:25;;;;;;;22.70;9.60;;;;;;;10.87;100.00;102049.59;5075021;28;20671;-60
2021/10/26 08:22:50;;;;;;;19.70;9.23;;;;;;;11.04;100.00;102054.47;5075081;28;20039;-59
2021/10/26 08:27:54;;;;;;;16.60;8.27;;;;;;;11.18;98.46;102039.03;5075419;28;20047;-64
2021/10/26 08:30:33;;;;;;;25.02;9.63;;;;;;;11.29;98.74;102042.25;5074510;28;20033;-58
2021/10/26 08:38:02;;;;;;;17.90;8.50;;;;;;;11.34;96.55;102049.22;5055231;28;20036;-59
2021/10/26 08:40:28;;;;;;;19.13;7.55;;;;;;;11.34;96.66;102043.91;5063265;28;20033;-57
2021/10/26 08:42:57;;;;;;;21.48;7.88;;;;;;;11.38;96.21;102045.53;5069686;28;20117;-59
2021/10/26 08:45:25;;;;;;;14.43;7.97;;;;;;;11.47;96.49;102051.47;5073401;28;20028;-59
2021/10/26 08:47:51;;;;;;;19.48;7.80;;;;;;;11.52;95.01;102038.06;5075224;28;20016;-60
2021/10/26 08:50:20;;;;;;;21.50;7.65;;;;;;;11.52;94.69;102039.84;5072777;28;20051;-59
2021/10/26 08:52:49;;;;;;;17.67;8.07;;;;;;;11.53;94.58;102034.47;5061991;28;20032;-58
2021/10/26 08:55:17;;;;;;;16.38;7.80;;;;;;;11.53;95.14;102033.63;5066244;28;20024;-56
2021/10/26 08:57:43;;;;;;;16.95;8.35;;;;;;;11.59;95.30;102028.13;5054464;28;20021;-59
2021/10/26 09:00:09;;;;;;;16.33;7.90;;;;;;;11.60;94.86;102035.19;5055151;28;20028;-58
2021/10/26 09:02:48;;;;;;;14.25;8.32;;;;;;;11.57;94.49;102038.81;5056115;28;20041;-58
2021/10/26 09:05:20;;;;;;;20.80;8.68;;;;;;;11.67;94.78;102034.06;5059520;28;20098;-59
2021/10/26 09:08:05;;;;;;;16.40;8.30;;;;;;;11.77;94.59;102032.88;5075442;28;20035;-59
2021/10/26 09:10:32;;;;;;;17.92;7.88;;;;;;;11.89;93.85;102038.72;5062079;28;20029;-58
2021/10/26 09:18:44;;;;;;;18.88;8.82;;;;;;;12.26;91.70;102027.84;5060978;28;20044;-59
2021/10/26 09:21:30;;;;;;;18.33;8.45;;;;;;;12.32;91.39;102036.53;5040556;28;20049;-60
2021/10/26 09:23:57;;;;;;;16.88;7.38;;;;;;;12.22;91.36;102036.81;5064125;28;20033;-55
2021/10/26 09:26:44;;;;;;;24.55;9.27;;;;;;;12.04;92.14;102032.97;5063837;28;20540;-60
2021/10/26 09:29:10;;;;;;;14.65;8.50;;;;;;;11.91;93.49;102045.72;5073974;28;20074;-59
2021/10/26 09:31:38;;;;;;;19.35;9.60;;;;;;;11.84;94.07;102054.81;5072798;28;20029;-57
2021/10/26 09:34:07;;;;;;;21.17;10.43;;;;;;;11.74;95.51;102051.56;5073566;28;20111;-71
2021/10/26 09:36:35;;;;;;;23.20;11.13;;;;;;;11.69;95.88;102058.78;5072671;28;20039;-59
2021/10/26 09:39:03;;;;;;;18.42;10.75;;;;;;;11.65;96.43;102046.53;5072689;28;20435;-59
2021/10/26 09:41:31;;;;;;;16.88;10.70;;;;;;;11.57;97.03;102048.53;5065227;28;20035;-57
2021/10/26 09:44:17;;;;;;;20.60;11.30;;;;;;;11.59;97.34;102049.38;5054172;28;20017;-57
2021/10/26 09:46:51;;;;;;;19.02;11.63;;;;;;;11.61;97.44;102034.25;5053521;28;20025;-58
2021/10/26 09:49:29;;;;;;;18.45;10.70;;;;;;;11.56;97.62;102055.63;5053604;28;20386;-58
2021/10/26 09:52:36;;;;;;;22.13;11.63;;;;;;;11.45;98.10;102040.00;5051242;28;20021;-59
2021/10/26 09:57:44;;;;;;;18.35;11.45;;;;;;;11.41;99.54;102034.88;4991590;28;20023;-59
2021/10/26 10:00:11;;;;;;;20.83;11.75;;;;;;;11.45;99.92;102026.75;4992536;28;20069;-60
2021/10/26 10:02:37;;;;;;;23.00;11.52;;;;;;;11.52;100.00;102031.88;4992151;28;20089;-59
2021/10/26 10:05:03;;;;;;;18.35;10.00;;;;;;;11.68;99.76;102029.66;4991044;28;20031;-61
2021/10/26 10:07:34;;;;;;;18.88;10.05;;;;;;;11.77;99.26;102027.56;4990904;28;20039;-58
2021/10/26 10:10:04;;;;;;;21.90;10.73;;;;;;;11.90;98.67;102030.69;4992428;28;20023;-59
2021/10/26 10:12:31;;;;;;;14.35;9.32;;;;;;;12.11;97.79;102030.97;4991583;28;20038;-58
2021/10/26 10:14:57;;;;;;;16.27;9.55;;;;;;;12.23;96.24;102019.97;4991242;28;20232;-56
2021/10/26 10:17:24;;;;;;;18.45;8.65;;;;;;;12.40;96.05;102021.19;4992534;28;20037;-58
2021/10/26 10:19:51;;;;;;;14.13;8.48;;;;;;;12.58;94.89;102012.59;4989806;28;20072;-58
2021/10/26 10:22:21;;;;;;;13.13;8.15;;;;;;;12.85;93.41;102017.00;4991443;28;20568;-58
2021/10/26 10:24:49;;;;;;;14.90;7.45;;;;;;;13.51;91.23;102021.72;4999013;28;20030;-59
2021/10/26 10:27:18;;;;;;;15.52;7.13;;;;;;;14.21;87.35;102019.84;5052841;28;20037;-59
2021/10/26 10:29:44;;;;;;;12.10;6.13;;;;;;;14.56;83.53;102017.47;5055916;28;20025;-55
2021/10/26 10:32:11;;;;;;;13.05;6.45;;;;;;;14.14;83.38;102021.88;5072772;28;20036;-60
2021/10/26 10:34:36;;;;;;;11.45;6.90;;;;;;;13.69;85.70;102026.31;5070980;28;20032;-57
2021/10/26 10:37:03;;;;;;;13.88;7.43;;;;;;;13.68;87.17;102029.94;5073252;28;20357;-59
2021/10/26 10:39:33;;;;;;;12.05;7.00;;;;;;;13.80;86.93;102019.69;5067086;28;20017;-59
2021/10/26 10:42:25;;;;;;;13.95;6.93;;;;;;;13.87;86.04;102030.03;5052737;28;20519;-57
2021/10/26 10:44:52;;;;;;;;;;;;;;;13.90;84.15;102024.63;5055085;28;20040;-60
2021/10/26 10:47:32;;;;;;;16.33;7.10;;;;;;;13.98;85.69;102029.63;5052549;28;19928;-59
2021/10/26 10:49:59;;;;;;;12.40;7.28;;;;;;;13.94;85.00;102017.38;5056996;28;20378;-57
2021/10/26 10:52:33;;;;;;;16.50;7.82;;;;;;;13.81;84.67;102010.78;5052629;28;20025;-60
2021/10/26 10:55:20;;;;;;;14.90;7.45;;;;;;;13.62;86.28;102019.50;5057709;28;20025;-58
2021/10/26 10:57:46;;;;;;;12.95;7.35;;;;;;;13.70;85.77;102009.41;5072524;28;20036;-60
2021/10/26 11:00:21;;;;;;;12.25;7.30;;;;;;;13.82;85.68;102023.19;5071502;28;20043;-59
2021/10/26 11:02:50;;;;;;;13.73;8.10;;;;;;;14.22;85.84;102021.56;5072650;28;20132;-59
2021/10/26 11:05:35;;;;;;;12.27;6.07;;;;;;;15.23;80.22;102019.00;5066153;28;20020;-59
2021/10/26 11:08:04;;;;;;;12.15;6.13;;;;;;;15.71;77.10;102027.44;5057270;28;20451;-62
2021/10/26 11:10:48;;;;;;;13.43;5.82;;;;;;;15.25;78.45;102016.25;5072180;28;20031;-59
2021/10/26 11:13:25;;;;;;;13.77;5.10;;;;;;;14.80;79.45;102030.72;5065798;28;20017;-64
2021/10/26 11:15:59;;;;;;;14.27;5.90;;;;;;;14.35;81.67;102022.78;5058112;28;20083;-64
2021/10/26 11:18:33;;;;;;;19.23;6.88;;;;;;;14.19;82.84;102011.88;5051913;28;20021;-64
2021/10/26 11:21:00;;;;;;;13.23;6.07;;;;;;;14.11;82.95;102014.00;5032644;28;20029;-60
2021/10/26 11:23:38;;;;;;;13.10;6.80;;;;;;;13.93;83.42;102008.50;5045327;28;20060;-60
2021/10/26 11:26:11;;;;;;;14.63;6.75;;;;;;;13.84;84.05;102003.56;5057170;28;20029;-62